createdAt,value
2019-03-24T00:04:52.512Z,5.9
2019-03-24T00:09:52.860Z,6
2019-03-24T00:14:52.551Z,5.9
2019-03-24T00:19:52.874Z,5.9
2019-03-24T00:24:52.443Z,5.8
2019-03-24T00:29:52.834Z,5.8
2019-03-24T00:34:52.790Z,5.6
2019-03-24T00:39:52.628Z,5.5
2019-03-24T00:44:52.459Z,5.7
2019-03-24T00:49:52.564Z,5.7
2019-03-24T00:54:52.534Z,5.8
2019-03-24T00:59:52.834Z,5.8
2019-03-24T01:04:52.405Z,5.7
2019-03-24T01:09:52.730Z,5.5
2019-03-24T01:14:52.371Z,5.3
2019-03-24T01:19:52.694Z,5.3
2019-03-24T01:24:52.645Z,5.5
2019-03-24T01:29:52.642Z,5.2
2019-03-24T01:34:52.426Z,5.3
2019-03-24T01:39:52.395Z,5.3
2019-03-24T01:44:52.591Z,5.3
2019-03-24T01:49:52.681Z,5.2
2019-03-24T01:54:52.671Z,5.2
2019-03-24T01:59:52.501Z,5.3
2019-03-24T02:04:52.928Z,5.2
2019-03-24T02:09:52.578Z,5.2
2019-03-24T02:14:52.335Z,5.3
2019-03-24T02:19:52.496Z,5.2
2019-03-24T02:24:52.317Z,5.4
2019-03-24T02:29:52.433Z,5.3
2019-03-24T02:34:52.586Z,5.3
2019-03-24T02:39:52.425Z,5.3
2019-03-24T02:44:52.546Z,5.2
2019-03-24T02:49:52.620Z,5.1
2019-03-24T02:54:52.311Z,5.3
2019-03-24T02:59:52.642Z,5.2
2019-03-24T03:04:52.624Z,5.1
2019-03-24T03:09:52.356Z,5
2019-03-24T03:14:52.326Z,4.8
2019-03-24T03:19:53.862Z,4.8
2019-03-24T03:24:52.590Z,4.8
2019-03-24T03:29:52.548Z,4.8
2019-03-24T03:34:52.254Z,4.8
2019-03-24T03:39:57.389Z,4.7
2019-03-24T03:44:52.505Z,4.6
2019-03-24T03:49:52.348Z,4.6
2019-03-24T03:54:52.360Z,4.6
2019-03-24T03:59:52.337Z,4.6
2019-03-24T04:04:52.619Z,4.5
2019-03-24T04:09:52.654Z,4.5
2019-03-24T04:14:52.253Z,4.6
2019-03-24T04:19:52.319Z,4.7
2019-03-24T04:24:52.532Z,4.7
2019-03-24T04:29:52.177Z,4.8
2019-03-24T04:34:52.366Z,4.9
2019-03-24T04:39:52.100Z,4.9
2019-03-24T04:44:52.326Z,4.9
2019-03-24T04:49:52.474Z,4.8
2019-03-24T04:54:52.091Z,4.8
2019-03-24T04:59:52.428Z,4.9
2019-03-24T05:04:52.331Z,4.9
2019-03-24T05:09:54.434Z,4.7
2019-03-24T05:14:52.137Z,4.7
2019-03-24T05:19:52.212Z,4.6
2019-03-24T05:24:52.070Z,4.8
2019-03-24T05:29:52.477Z,4.7
2019-03-24T05:34:52.279Z,4.6
2019-03-24T05:39:52.229Z,4.6
2019-03-24T05:44:52.081Z,4.6
2019-03-24T05:49:52.385Z,4.6
2019-03-24T05:54:52.352Z,4.5
2019-03-24T05:59:52.164Z,4.5
2019-03-24T06:04:52.011Z,4.6
2019-03-24T06:09:52.204Z,4.5
2019-03-24T06:14:52.124Z,4.6
2019-03-24T06:19:52.219Z,4.7
2019-03-24T06:24:52.177Z,4.6
2019-03-24T06:29:52.129Z,4.7
2019-03-24T06:34:51.927Z,5
2019-03-24T06:39:52.256Z,4.9
2019-03-24T06:44:52.089Z,5.2
2019-03-24T06:49:52.086Z,5.3
2019-03-24T06:54:51.895Z,5.2
2019-03-24T06:59:52.216Z,5.4
2019-03-24T07:04:52.141Z,5.5
2019-03-24T07:09:52.166Z,5.7
2019-03-24T07:14:52.247Z,6
2019-03-24T07:19:51.976Z,6.5
2019-03-24T07:24:52.007Z,6.5
2019-03-24T07:29:52.034Z,6.6
2019-03-24T07:34:52.164Z,6.9
2019-03-24T07:39:52.192Z,7.1
2019-03-24T07:44:52.134Z,7.4
2019-03-24T07:49:52.014Z,7.9
2019-03-24T07:54:51.909Z,8.2
2019-03-24T07:59:52.071Z,8.3
2019-03-24T08:04:52.057Z,8.7
2019-03-24T08:09:52.227Z,8.9
2019-03-24T08:14:51.846Z,9
2019-03-24T08:19:52.165Z,9.4
2019-03-24T08:24:51.762Z,9.3
2019-03-24T08:29:52.161Z,9
2019-03-24T08:34:51.775Z,8.9
2019-03-24T08:39:51.813Z,9.1
2019-03-24T08:44:52.018Z,9
2019-03-24T08:49:51.937Z,9.4
2019-03-24T08:54:51.959Z,9.6
2019-03-24T08:59:51.958Z,9.5
2019-03-24T09:04:51.730Z,9.4
2019-03-24T09:09:51.844Z,9.4
2019-03-24T09:14:52.108Z,9.5
2019-03-24T09:19:51.978Z,9.5
2019-03-24T09:24:51.753Z,9.4
2019-03-24T09:29:51.802Z,9.8
2019-03-24T09:34:51.780Z,10
2019-03-24T09:39:51.714Z,10.1
2019-03-24T09:44:52.062Z,10.2
2019-03-24T09:49:51.744Z,10.2
2019-03-24T09:54:51.743Z,9.9
2019-03-24T09:59:51.757Z,9.6
2019-03-24T10:04:51.670Z,10
2019-03-24T10:09:52.018Z,10
2019-03-24T10:14:51.796Z,10.3
2019-03-24T10:19:51.937Z,10.1
2019-03-24T10:24:51.630Z,10.3
2019-03-24T10:29:51.890Z,10.3
2019-03-24T10:34:51.685Z,10.9
2019-03-24T10:39:51.772Z,10.4
2019-03-24T10:44:51.811Z,10.4
2019-03-24T10:49:51.770Z,10.6
2019-03-24T10:54:51.630Z,11.3
2019-03-24T10:59:51.699Z,11.7
2019-03-24T11:04:51.716Z,12.3
2019-03-24T11:09:51.891Z,12.2
2019-03-24T11:14:51.754Z,12
2019-03-24T11:19:51.665Z,11.9
2019-03-24T11:24:51.716Z,12.1
2019-03-24T11:29:51.578Z,12.2
2019-03-24T11:34:51.663Z,11.6
2019-03-24T11:39:51.911Z,11.6
2019-03-24T11:44:51.598Z,11.4
2019-03-24T11:49:51.813Z,11.2
2019-03-24T11:54:51.525Z,11.6
2019-03-24T11:59:51.461Z,11.8
2019-03-24T12:04:51.525Z,11.6
2019-03-24T12:09:51.744Z,12.1
2019-03-24T12:14:51.687Z,12.3
2019-03-24T12:19:56.749Z,12
2019-03-24T12:24:51.411Z,11.6
2019-03-24T12:29:51.566Z,11.6
2019-03-24T12:34:51.589Z,11.4
2019-03-24T12:39:51.470Z,11.7
2019-03-24T12:44:51.529Z,12.6
2019-03-24T12:49:51.713Z,12.2
2019-03-24T12:54:51.421Z,12.1
2019-03-24T12:59:51.675Z,12.1
2019-03-24T13:04:51.666Z,12.1
2019-03-24T13:09:51.419Z,12.1
2019-03-24T13:14:51.358Z,12.3
2019-03-24T13:19:51.480Z,12.8
2019-03-24T13:24:51.642Z,13
2019-03-24T13:29:51.812Z,13.4
2019-03-24T13:34:51.530Z,12.5
2019-03-24T13:39:51.523Z,12.9
2019-03-24T13:44:51.506Z,13
2019-03-24T13:49:54.442Z,13.3
2019-03-24T13:54:51.477Z,13.1
2019-03-24T13:59:51.326Z,13.5
2019-03-24T14:04:51.353Z,13.4
2019-03-24T14:09:51.567Z,12.7
2019-03-24T14:14:51.286Z,12.5
2019-03-24T14:19:51.429Z,13.2
2019-03-24T14:24:51.625Z,13.1
2019-03-24T14:29:51.575Z,13.8
2019-03-24T14:34:51.237Z,14.1
2019-03-24T14:39:51.301Z,12.9
2019-03-24T14:44:51.478Z,12.2
2019-03-24T14:49:51.281Z,11.9
2019-03-24T14:54:51.318Z,12
2019-03-24T14:59:51.424Z,12.4
2019-03-24T15:04:51.530Z,13.1
2019-03-24T15:09:51.487Z,14.5
2019-03-24T15:14:51.526Z,15.8
2019-03-24T15:19:51.315Z,15.9
2019-03-24T15:24:51.293Z,17.5
2019-03-24T15:29:51.325Z,18.6
2019-03-24T15:34:51.385Z,19.4
2019-03-24T15:39:51.514Z,16.8
2019-03-24T15:44:51.319Z,17.6
2019-03-24T15:49:51.231Z,17.4
2019-03-24T15:54:51.314Z,16.9
2019-03-24T15:59:51.383Z,17.7
2019-03-24T16:04:51.167Z,17.3
2019-03-24T16:09:51.352Z,15.8
2019-03-24T16:14:51.386Z,14.2
2019-03-24T16:19:51.226Z,13.2
2019-03-24T16:24:51.228Z,13.6
2019-03-24T16:29:51.423Z,14.1
2019-03-24T16:34:51.402Z,13.6
2019-03-24T16:39:51.160Z,12.9
2019-03-24T16:44:51.015Z,12.4
2019-03-24T16:49:51.260Z,11.8
2019-03-24T16:54:51.167Z,11.4
2019-03-24T16:59:51.267Z,11
2019-03-24T17:04:51.238Z,10.7
2019-03-24T17:09:51.148Z,10.4
2019-03-24T17:14:51.021Z,10.4
2019-03-24T17:19:51.305Z,10.4
2019-03-24T17:24:51.383Z,10
2019-03-24T17:29:51.215Z,10
2019-03-24T17:34:51.102Z,9.9
2019-03-24T17:39:51.202Z,9.8
2019-03-24T17:44:51.123Z,9.9
2019-03-24T17:49:51.090Z,9.8
2019-03-24T17:54:51.185Z,9.8
2019-03-24T17:59:51.354Z,9.6
2019-03-24T18:04:51.068Z,9.4
2019-03-24T18:09:51.351Z,9.4
2019-03-24T18:14:50.931Z,9.3
2019-03-24T18:19:51.180Z,9.3
2019-03-24T18:24:50.981Z,9.2
2019-03-24T18:29:50.944Z,9.1
2019-03-24T18:34:51.253Z,9
2019-03-24T18:39:51.005Z,8.9
2019-03-24T18:44:50.980Z,9
2019-03-24T18:49:51.245Z,8.8
2019-03-24T18:54:50.877Z,8.8
2019-03-24T18:59:51.123Z,8.7
2019-03-24T19:04:51.198Z,8.6
2019-03-24T19:09:50.880Z,8.4
2019-03-24T19:14:51.008Z,8.3
2019-03-24T19:19:51.023Z,8.1
2019-03-24T19:24:50.813Z,8
2019-03-24T19:29:51.126Z,7.9
2019-03-24T19:34:50.963Z,7.9
2019-03-24T19:39:51.016Z,7.7
2019-03-24T19:44:50.828Z,7.9
2019-03-24T19:49:51.280Z,7.7
2019-03-24T19:54:50.784Z,7.6
2019-03-24T19:59:50.923Z,7.6
2019-03-24T20:04:51.134Z,7.6
2019-03-24T20:09:50.870Z,7.5
2019-03-24T20:14:50.752Z,7.4
2019-03-24T20:19:51.040Z,7.6
2019-03-24T20:24:50.945Z,7.5
2019-03-24T20:29:51.162Z,7.3
2019-03-24T20:34:51.009Z,7.4
2019-03-24T20:39:50.904Z,7.4
2019-03-24T20:44:50.977Z,7.2
2019-03-24T20:49:50.967Z,7.2
2019-03-24T20:54:50.850Z,7.1
2019-03-24T20:59:52.073Z,7.2
2019-03-24T21:04:50.706Z,7.1
2019-03-24T21:09:50.705Z,7
2019-03-24T21:14:50.784Z,6.8
2019-03-24T21:19:50.792Z,6.9
2019-03-24T21:24:50.709Z,6.7
2019-03-24T21:29:50.709Z,6.9
2019-03-24T21:34:50.879Z,6.8
2019-03-24T21:39:50.781Z,6.8
2019-03-24T21:44:50.644Z,6.5
2019-03-24T21:49:50.860Z,6.6
2019-03-24T21:54:50.651Z,6.4
2019-03-24T21:59:50.669Z,6.4
2019-03-24T22:04:50.730Z,6.5
2019-03-24T22:09:50.693Z,6.2
2019-03-24T22:14:50.679Z,6.1
2019-03-24T22:19:50.693Z,6
2019-03-24T22:24:50.764Z,6.2
2019-03-24T22:29:50.573Z,6.2
2019-03-24T22:34:50.670Z,6.3
2019-03-24T22:39:50.851Z,6.2
2019-03-24T22:44:50.571Z,6.3
2019-03-24T22:49:50.654Z,6.3
2019-03-24T22:54:50.576Z,6.3
2019-03-24T22:59:50.732Z,6.4
2019-03-24T23:04:50.684Z,6.5
2019-03-24T23:09:50.843Z,6.6
2019-03-24T23:14:50.555Z,6.6
2019-03-24T23:19:50.682Z,6.5
2019-03-24T23:24:50.773Z,6.4
2019-03-24T23:29:50.596Z,6.5
2019-03-24T23:34:50.465Z,6.5
2019-03-24T23:39:50.779Z,6.6
2019-03-24T23:44:50.816Z,6.7
2019-03-24T23:49:50.523Z,6.7
2019-03-24T23:54:50.398Z,6.9
2019-03-24T23:59:50.583Z,6.7
